Hlavní strana
METAR-TAF:

METAR-TAF

Letiště :

Ängelholm–Helsingborg

Helsingborg, Švédsko

zeměpisná šířka: 56-17-46N, zeměpisná délka: 012-50-50E, výška: 21 m

Aktuální stav počasí

Zpráva byla vytvořena před 13 minutami, v 17:50 UTC
Severozápadní vítr 6 kt
Teplota 0°C
Vlhkost vzduchu 69%
Tlak 1017 hPa
Viditelnost 10 km a více
Žádná oblačnost pod 1500 m, nevyskytují se cumulonimby.

METAR: ESTA 071750Z 32006KT CAVOK 00/M05 Q1017

Čas: 19:03 (18:03 UTC)

Předpověď počasí

Zpráva byla vytvořena před 57 minutami, v 17:06 UTC
Předpověď platná od 07 v 18 UTC do 07 v 23 UTC
Severoseverozápadní vítr 12 kt
Viditelnost 10 km a více
Žádná oblačnost pod 1500 m, nevyskytují se cumulonimby.

TAF: ESTA 071706Z 0718/0723 34012KT CAVOK

Stav a předpovědi počasí z více než 4 000 letišť (zprávy METAR a TAF).

Červené a žluté tečky na mapě představují dostupné meteorologické stanice.

Když kurzor umístíte na tečku, zobrazí se název stanice.

Pak kliknutím zobrazíte stav a předpověď počasí.

Chcete-li změnit mapu, kliknutím na zelené tlačítko se znaménkem +mapu přiblížíte, kliknutím na zelené tlačítko se znaménkem – mapu oddálíte a kliknutím na zelené šipky přejdete na sousední mapy.


METAR-TAF: